Check out our new PWSWeather beta!
PWSweather.com
Personal Weather Stations
Station Observations
OINOFYTA
Oinofyta Greece, OinofytaGR 320 11

Oinofyta GreeceOinofytaGR 320 11

Lat: 38.3080648, Lon: 23.6391172

Elevation: 354

Station Type: ProWeatherStation 1080

https://oinofytaweather.gr/

High Low Average
Temperature 62.1°F16.7°C 42.4°F5.8°C 56.0°F13.3°C
Dew Point 50.1°F10.1°C 29.5°F-1.4°C 40.1°F4.5°C
Winds 8.7 mph 14.0 kmh Calm Calm 4.0 mph WSW6.4 kmh WSW
Wind Gusts 24.4 mph39.3 kmh 1.6 mph2.6 kmh 11.0 mph17.7 kmh
Humidity 77% 29% 57%
Pressure 30.16 in1021.3 mb 29.82 in1009.8 mb -
Precipitation 0.00 in0.0 mm - -
Hour Temp Dew Point Humidity Winds Wind Gusts Pressure Precip Precip Rate Daily Precip Total
12:00 AM 59.0°F15.0°C 47.3°F8.5°C 65% 5.1 mph S8.2 kmh S 15.2 mph24.5 kmh 29.90 in1012.5 mb 0.00 in0.0 mm 0.00 in0.0 mm 0.00 in0.0 mm
12:05 AM 58.8°F14.9°C 47.5°F8.6°C 66% 4.9 mph S7.9 kmh S 13.6 mph21.9 kmh 29.90 in1012.5 mb 0.00 in0.0 mm 0.00 in0.0 mm 0.00 in0.0 mm
12:10 AM 59.0°F15.0°C 47.3°F8.5°C 65% 6.0 mph SSW9.7 kmh SSW 19.7 mph31.7 kmh 29.89 in1012.2 mb 0.00 in0.0 mm 0.00 in0.0 mm 0.00 in0.0 mm
12:15 AM 59.0°F15.0°C 47.3°F8.5°C 65% 5.7 mph S9.2 kmh S 19.7 mph31.7 kmh 29.89 in1012.2 mb 0.00 in0.0 mm 0.00 in0.0 mm 0.00 in0.0 mm
12:20 AM 58.6°F14.8°C 46.9°F8.3°C 65% 3.7 mph S6.0 kmh S 19.7 mph31.7 kmh 29.89 in1012.2 mb 0.00 in0.0 mm 0.00 in0.0 mm 0.00 in0.0 mm
12:25 AM 58.8°F14.9°C 47.1°F8.4°C 65% 4.7 mph S7.6 kmh S 20.6 mph33.2 kmh 29.89 in1012.2 mb 0.00 in0.0 mm 0.00 in0.0 mm 0.00 in0.0 mm
12:30 AM 58.8°F14.9°C 46.7°F8.2°C 64% 5.3 mph S8.5 kmh S 20.6 mph33.2 kmh 29.89 in1012.2 mb 0.00 in0.0 mm 0.00 in0.0 mm 0.00 in0.0 mm
12:35 AM 58.8°F14.9°C 46.7°F8.2°C 64% 3.9 mph SSE6.3 kmh SSE 12.1 mph19.5 kmh 29.88 in1011.9 mb 0.00 in0.0 mm 0.00 in0.0 mm 0.00 in0.0 mm
12:40 AM 58.8°F14.9°C 47.1°F8.4°C 65% 3.7 mph S6.0 kmh S 12.1 mph19.5 kmh 29.89 in1012.2 mb 0.00 in0.0 mm 0.00 in0.0 mm 0.00 in0.0 mm
12:45 AM 58.8°F14.9°C 46.7°F8.2°C 64% 3.3 mph S5.3 kmh S 9.8 mph15.8 kmh 29.88 in1011.9 mb 0.00 in0.0 mm 0.00 in0.0 mm 0.00 in0.0 mm
12:50 AM 58.8°F14.9°C 47.1°F8.4°C 65% 3.5 mph SSE5.6 kmh SSE 13.0 mph20.9 kmh 29.88 in1011.9 mb 0.00 in0.0 mm 0.00 in0.0 mm 0.00 in0.0 mm
12:55 AM 58.8°F14.9°C 47.1°F8.4°C 65% 3.6 mph SSE5.8 kmh SSE 13.0 mph20.9 kmh 29.89 in1012.2 mb 0.00 in0.0 mm 0.00 in0.0 mm 0.00 in0.0 mm
01:00 AM 58.8°F14.9°C 47.1°F8.4°C 65% 3.1 mph S5.0 kmh S 8.3 mph13.4 kmh 29.88 in1011.9 mb 0.00 in0.0 mm 0.00 in0.0 mm 0.00 in0.0 mm
01:05 AM 59.0°F15.0°C 47.3°F8.5°C 65% 3.1 mph SSW5.0 kmh SSW 9.2 mph14.8 kmh 29.88 in1011.9 mb 0.00 in0.0 mm 0.00 in0.0 mm 0.00 in0.0 mm
01:10 AM 59.4°F15.2°C 47.6°F8.7°C 65% 3.4 mph SW5.5 kmh SW 13.6 mph21.9 kmh 29.88 in1011.9 mb 0.00 in0.0 mm 0.00 in0.0 mm 0.00 in0.0 mm
01:15 AM 59.4°F15.2°C 47.6°F8.7°C 65% 3.0 mph SSW4.8 kmh SSW 13.6 mph21.9 kmh 29.88 in1011.9 mb 0.00 in0.0 mm 0.00 in0.0 mm 0.00 in0.0 mm
01:20 AM 59.4°F15.2°C 47.6°F8.7°C 65% 3.1 mph S5.0 kmh S 11.4 mph18.3 kmh 29.87 in1011.5 mb 0.00 in0.0 mm 0.00 in0.0 mm 0.00 in0.0 mm
01:25 AM 59.4°F15.2°C 47.6°F8.7°C 65% 4.0 mph S6.4 kmh S 12.1 mph19.5 kmh 29.87 in1011.5 mb 0.00 in0.0 mm 0.00 in0.0 mm 0.00 in0.0 mm
01:30 AM 59.4°F15.2°C 47.2°F8.4°C 64% 3.6 mph SSW5.8 kmh SSW 12.1 mph19.5 kmh 29.86 in1011.2 mb 0.00 in0.0 mm 0.00 in0.0 mm 0.00 in0.0 mm
01:35 AM 59.4°F15.2°C 47.2°F8.4°C 64% 3.7 mph SSW6.0 kmh SSW 13.6 mph21.9 kmh 29.86 in1011.2 mb 0.00 in0.0 mm 0.00 in0.0 mm 0.00 in0.0 mm
01:40 AM 59.4°F15.2°C 47.6°F8.7°C 65% 4.6 mph SSW7.4 kmh SSW 14.5 mph23.3 kmh 29.86 in1011.2 mb 0.00 in0.0 mm 0.00 in0.0 mm 0.00 in0.0 mm
01:45 AM 59.4°F15.2°C 47.6°F8.7°C 65% 4.9 mph S7.9 kmh S 14.5 mph23.3 kmh 29.85 in1010.8 mb 0.00 in0.0 mm 0.00 in0.0 mm 0.00 in0.0 mm
01:50 AM 59.4°F15.2°C 47.6°F8.7°C 65% 4.0 mph S6.4 kmh S 14.5 mph23.3 kmh 29.85 in1010.8 mb 0.00 in0.0 mm 0.00 in0.0 mm 0.00 in0.0 mm
01:55 AM 59.0°F15.0°C 47.7°F8.7°C 66% 2.7 mph S4.3 kmh S 11.4 mph18.3 kmh 29.86 in1011.2 mb 0.00 in0.0 mm 0.00 in0.0 mm 0.00 in0.0 mm
02:00 AM 59.2°F15.1°C 48.2°F9.0°C 67% 4.7 mph SSW7.6 kmh SSW 16.8 mph27.0 kmh 29.86 in1011.2 mb 0.00 in0.0 mm 0.00 in0.0 mm 0.00 in0.0 mm
02:05 AM 59.5°F15.3°C 48.6°F9.2°C 67% 7.0 mph SW11.3 kmh SW 18.3 mph29.5 kmh 29.86 in1011.2 mb 0.00 in0.0 mm 0.00 in0.0 mm 0.00 in0.0 mm
02:10 AM 59.7°F15.4°C 48.4°F9.1°C 66% 8.4 mph SSW13.5 kmh SSW 24.4 mph39.3 kmh 29.86 in1011.2 mb 0.00 in0.0 mm 0.00 in0.0 mm 0.00 in0.0 mm
02:15 AM 59.9°F15.5°C 48.5°F9.2°C 66% 8.0 mph SSW12.9 kmh SSW 24.4 mph39.3 kmh 29.86 in1011.2 mb 0.00 in0.0 mm 0.00 in0.0 mm 0.00 in0.0 mm
02:20 AM 59.9°F15.5°C 48.9°F9.4°C 67% 6.3 mph SW10.1 kmh SW 15.2 mph24.5 kmh 29.86 in1011.2 mb 0.00 in0.0 mm 0.00 in0.0 mm 0.00 in0.0 mm
02:25 AM 59.9°F15.5°C 48.9°F9.4°C 67% 6.2 mph SW10.0 kmh SW 15.2 mph24.5 kmh 29.86 in1011.2 mb 0.00 in0.0 mm 0.00 in0.0 mm 0.00 in0.0 mm
02:30 AM 59.9°F15.5°C 48.5°F9.2°C 66% 4.4 mph SSW7.1 kmh SSW 13.6 mph21.9 kmh 29.87 in1011.5 mb 0.00 in0.0 mm 0.00 in0.0 mm 0.00 in0.0 mm
02:35 AM 59.7°F15.4°C 48.4°F9.1°C 66% 3.1 mph SW5.0 kmh SW 10.7 mph17.2 kmh 29.87 in1011.5 mb 0.00 in0.0 mm 0.00 in0.0 mm 0.00 in0.0 mm
02:40 AM 59.7°F15.4°C 48.8°F9.3°C 67% 3.2 mph SSW5.1 kmh SSW 9.8 mph15.8 kmh 29.87 in1011.5 mb 0.00 in0.0 mm 0.00 in0.0 mm 0.00 in0.0 mm
02:45 AM 59.7°F15.4°C 48.8°F9.3°C 67% 2.8 mph S4.5 kmh S 9.8 mph15.8 kmh 29.87 in1011.5 mb 0.00 in0.0 mm 0.00 in0.0 mm 0.00 in0.0 mm
02:50 AM 59.7°F15.4°C 48.8°F9.3°C 67% 2.5 mph S4.0 kmh S 7.6 mph12.2 kmh 29.87 in1011.5 mb 0.00 in0.0 mm 0.00 in0.0 mm 0.00 in0.0 mm
02:55 AM 59.7°F15.4°C 48.8°F9.3°C 67% 1.7 mph SSW2.7 kmh SSW 6.0 mph9.7 kmh 29.86 in1011.2 mb 0.00 in0.0 mm 0.00 in0.0 mm 0.00 in0.0 mm
03:00 AM 59.5°F15.3°C 49.0°F9.4°C 68% 2.0 mph S3.2 kmh S 7.6 mph12.2 kmh 29.86 in1011.2 mb 0.00 in0.0 mm 0.00 in0.0 mm 0.00 in0.0 mm
03:05 AM 59.5°F15.3°C 49.0°F9.4°C 68% 3.5 mph S5.6 kmh S 11.4 mph18.3 kmh 29.85 in1010.8 mb 0.00 in0.0 mm 0.00 in0.0 mm 0.00 in0.0 mm
03:10 AM 59.7°F15.4°C 49.2°F9.6°C 68% 4.4 mph SW7.1 kmh SW 11.4 mph18.3 kmh 29.85 in1010.8 mb 0.00 in0.0 mm 0.00 in0.0 mm 0.00 in0.0 mm
03:15 AM 59.9°F15.5°C 48.9°F9.4°C 67% 4.4 mph SW7.1 kmh SW 13.0 mph20.9 kmh 29.85 in1010.8 mb 0.00 in0.0 mm 0.00 in0.0 mm 0.00 in0.0 mm
03:20 AM 60.1°F15.6°C 49.1°F9.5°C 67% 5.1 mph SSW8.2 kmh SSW 13.6 mph21.9 kmh 29.86 in1011.2 mb 0.00 in0.0 mm 0.00 in0.0 mm 0.00 in0.0 mm
03:25 AM 60.3°F15.7°C 49.3°F9.6°C 67% 5.3 mph SSW8.5 kmh SSW 14.5 mph23.3 kmh 29.85 in1010.8 mb 0.00 in0.0 mm 0.00 in0.0 mm 0.00 in0.0 mm
03:30 AM 60.1°F15.6°C 49.1°F9.5°C 67% 4.4 mph SSW7.1 kmh SSW 14.5 mph23.3 kmh 29.85 in1010.8 mb 0.00 in0.0 mm 0.00 in0.0 mm 0.00 in0.0 mm
03:35 AM 60.3°F15.7°C 48.9°F9.4°C 66% 5.3 mph SW8.5 kmh SW 17.4 mph28.0 kmh 29.85 in1010.8 mb 0.00 in0.0 mm 0.00 in0.0 mm 0.00 in0.0 mm
03:40 AM 60.4°F15.8°C 49.0°F9.4°C 66% 7.1 mph SSW11.4 kmh SSW 17.4 mph28.0 kmh 29.84 in1010.5 mb 0.00 in0.0 mm 0.00 in0.0 mm 0.00 in0.0 mm
03:45 AM 60.4°F15.8°C 49.0°F9.4°C 66% 6.7 mph SSW10.8 kmh SSW 16.8 mph27.0 kmh 29.84 in1010.5 mb 0.00 in0.0 mm 0.00 in0.0 mm 0.00 in0.0 mm
03:50 AM 60.4°F15.8°C 49.0°F9.4°C 66% 6.5 mph SSW10.5 kmh SSW 18.3 mph29.5 kmh 29.84 in1010.5 mb 0.00 in0.0 mm 0.00 in0.0 mm 0.00 in0.0 mm
03:55 AM 60.4°F15.8°C 49.0°F9.4°C 66% 7.5 mph SSW12.1 kmh SSW 19.0 mph30.6 kmh 29.83 in1010.2 mb 0.00 in0.0 mm 0.00 in0.0 mm 0.00 in0.0 mm
04:00 AM 60.3°F15.7°C 48.9°F9.4°C 66% 8.1 mph SSW13.0 kmh SSW 19.0 mph30.6 kmh 29.83 in1010.2 mb 0.00 in0.0 mm 0.00 in0.0 mm 0.00 in0.0 mm
04:05 AM 60.1°F15.6°C 48.7°F9.3°C 66% 6.9 mph SSW11.1 kmh SSW 16.8 mph27.0 kmh 29.83 in1010.2 mb 0.00 in0.0 mm 0.00 in0.0 mm 0.00 in0.0 mm
04:10 AM 60.1°F15.6°C 49.1°F9.5°C 67% 6.8 mph SW10.9 kmh SW 20.6 mph33.2 kmh 29.83 in1010.2 mb 0.00 in0.0 mm 0.00 in0.0 mm 0.00 in0.0 mm
04:15 AM 60.1°F15.6°C 49.1°F9.5°C 67% 7.2 mph SW11.6 kmh SW 20.6 mph33.2 kmh 29.83 in1010.2 mb 0.00 in0.0 mm 0.00 in0.0 mm 0.00 in0.0 mm
04:20 AM 60.1°F15.6°C 49.1°F9.5°C 67% 6.4 mph SW10.3 kmh SW 18.3 mph29.5 kmh 29.82 in1009.8 mb 0.00 in0.0 mm 0.00 in0.0 mm 0.00 in0.0 mm
04:25 AM 60.1°F15.6°C 49.1°F9.5°C 67% 6.5 mph SW10.5 kmh SW 18.3 mph29.5 kmh 29.83 in1010.2 mb 0.00 in0.0 mm 0.00 in0.0 mm 0.00 in0.0 mm
04:30 AM 60.1°F15.6°C 49.5°F9.7°C 68% 6.3 mph SW10.1 kmh SW 14.5 mph23.3 kmh 29.82 in1009.8 mb 0.00 in0.0 mm 0.00 in0.0 mm 0.00 in0.0 mm
04:35 AM 59.9°F15.5°C 49.3°F9.6°C 68% 5.1 mph SW8.2 kmh SW 15.9 mph25.6 kmh 29.83 in1010.2 mb 0.00 in0.0 mm 0.00 in0.0 mm 0.00 in0.0 mm
04:40 AM 59.9°F15.5°C 49.3°F9.6°C 68% 5.7 mph SW9.2 kmh SW 16.8 mph27.0 kmh 29.83 in1010.2 mb 0.00 in0.0 mm 0.00 in0.0 mm 0.00 in0.0 mm
04:45 AM 59.9°F15.5°C 49.7°F9.8°C 69% 6.0 mph SW9.7 kmh SW 16.8 mph27.0 kmh 29.83 in1010.2 mb 0.00 in0.0 mm 0.00 in0.0 mm 0.00 in0.0 mm
04:50 AM 59.7°F15.4°C 49.5°F9.7°C 69% 4.4 mph SSW7.1 kmh SSW 11.4 mph18.3 kmh 29.84 in1010.5 mb 0.00 in0.0 mm 0.00 in0.0 mm 0.00 in0.0 mm
04:55 AM 59.7°F15.4°C 49.5°F9.7°C 69% 3.8 mph SSW6.1 kmh SSW 10.7 mph17.2 kmh 29.84 in1010.5 mb 0.00 in0.0 mm 0.00 in0.0 mm 0.00 in0.0 mm
05:00 AM 59.9°F15.5°C 49.7°F9.8°C 69% 3.9 mph SW6.3 kmh SW 11.4 mph18.3 kmh 29.83 in1010.2 mb 0.00 in0.0 mm 0.00 in0.0 mm 0.00 in0.0 mm
05:05 AM 59.9°F15.5°C 49.7°F9.8°C 69% 4.8 mph SW7.7 kmh SW 11.4 mph18.3 kmh 29.83 in1010.2 mb 0.00 in0.0 mm 0.00 in0.0 mm 0.00 in0.0 mm
05:10 AM 59.7°F15.4°C 49.5°F9.7°C 69% 4.6 mph SW7.4 kmh SW 11.4 mph18.3 kmh 29.84 in1010.5 mb 0.00 in0.0 mm 0.00 in0.0 mm 0.00 in0.0 mm
05:15 AM 59.7°F15.4°C 49.2°F9.6°C 68% 4.7 mph WSW7.6 kmh WSW 17.4 mph28.0 kmh 29.83 in1010.2 mb 0.00 in0.0 mm 0.00 in0.0 mm 0.00 in0.0 mm
05:20 AM 59.7°F15.4°C 49.2°F9.6°C 68% 4.3 mph W6.9 kmh W 17.4 mph28.0 kmh 29.84 in1010.5 mb 0.00 in0.0 mm 0.00 in0.0 mm 0.00 in0.0 mm
05:25 AM 59.5°F15.3°C 49.4°F9.7°C 69% 3.9 mph WNW6.3 kmh WNW 14.5 mph23.3 kmh 29.84 in1010.5 mb 0.00 in0.0 mm 0.00 in0.0 mm 0.00 in0.0 mm
05:30 AM 58.8°F14.9°C 49.4°F9.7°C 71% 5.3 mph W8.5 kmh W 14.5 mph23.3 kmh 29.84 in1010.5 mb 0.00 in0.0 mm 0.00 in0.0 mm 0.00 in0.0 mm
05:35 AM 58.5°F14.7°C 49.8°F9.9°C 73% 6.1 mph W9.8 kmh W 13.6 mph21.9 kmh 29.85 in1010.8 mb 0.00 in0.0 mm 0.00 in0.0 mm 0.00 in0.0 mm
05:40 AM 57.2°F14.0°C 50.1°F10.1°C 77% 6.4 mph W10.3 kmh W 15.9 mph25.6 kmh 29.85 in1010.8 mb 0.00 in0.0 mm 0.00 in0.0 mm 0.00 in0.0 mm
05:45 AM 56.8°F13.8°C 49.7°F9.8°C 77% 7.0 mph W11.3 kmh W 15.9 mph25.6 kmh 29.85 in1010.8 mb 0.00 in0.0 mm 0.00 in0.0 mm 0.00 in0.0 mm
05:50 AM 56.7°F13.7°C 49.2°F9.6°C 76% 7.1 mph W11.4 kmh W 19.0 mph30.6 kmh 29.86 in1011.2 mb 0.00 in0.0 mm 0.00 in0.0 mm 0.00 in0.0 mm
05:55 AM 56.5°F13.6°C 49.0°F9.4°C 76% 6.6 mph W10.6 kmh W 19.0 mph30.6 kmh 29.86 in1011.2 mb 0.00 in0.0 mm 0.00 in0.0 mm 0.00 in0.0 mm
06:00 AM 56.5°F13.6°C 49.0°F9.4°C 76% 5.3 mph W8.5 kmh W 14.5 mph23.3 kmh 29.87 in1011.5 mb 0.00 in0.0 mm 0.00 in0.0 mm 0.00 in0.0 mm
06:05 AM 56.5°F13.6°C 48.7°F9.3°C 75% 4.9 mph W7.9 kmh W 15.9 mph25.6 kmh 29.88 in1011.9 mb 0.00 in0.0 mm 0.00 in0.0 mm 0.00 in0.0 mm
06:10 AM 56.5°F13.6°C 48.7°F9.3°C 75% 4.7 mph W7.6 kmh W 15.9 mph25.6 kmh 29.88 in1011.9 mb 0.00 in0.0 mm 0.00 in0.0 mm 0.00 in0.0 mm
06:15 AM 56.5°F13.6°C 48.7°F9.3°C 75% 4.2 mph W6.8 kmh W 13.6 mph21.9 kmh 29.89 in1012.2 mb 0.00 in0.0 mm 0.00 in0.0 mm 0.00 in0.0 mm
06:20 AM 56.5°F13.6°C 48.3°F9.1°C 74% 4.7 mph W7.6 kmh W 13.6 mph21.9 kmh 29.89 in1012.2 mb 0.00 in0.0 mm 0.00 in0.0 mm 0.00 in0.0 mm
06:25 AM 56.7°F13.7°C 48.5°F9.2°C 74% 6.2 mph W10.0 kmh W 18.3 mph29.5 kmh 29.89 in1012.2 mb 0.00 in0.0 mm 0.00 in0.0 mm 0.00 in0.0 mm
06:30 AM 56.7°F13.7°C 48.5°F9.2°C 74% 7.8 mph W12.6 kmh W 22.1 mph35.6 kmh 29.89 in1012.2 mb 0.00 in0.0 mm 0.00 in0.0 mm 0.00 in0.0 mm
06:35 AM 56.5°F13.6°C 48.3°F9.1°C 74% 6.5 mph W10.5 kmh W 22.1 mph35.6 kmh 29.90 in1012.5 mb 0.00 in0.0 mm 0.00 in0.0 mm 0.00 in0.0 mm
06:40 AM 56.5°F13.6°C 47.9°F8.8°C 73% 5.9 mph W9.5 kmh W 19.0 mph30.6 kmh 29.90 in1012.5 mb 0.00 in0.0 mm 0.00 in0.0 mm 0.00 in0.0 mm
06:45 AM 56.5°F13.6°C 47.6°F8.7°C 72% 7.1 mph W11.4 kmh W 19.0 mph30.6 kmh 29.90 in1012.5 mb 0.00 in0.0 mm 0.00 in0.0 mm 0.00 in0.0 mm
06:50 AM 56.7°F13.7°C 47.4°F8.6°C 71% 7.0 mph W11.3 kmh W 16.8 mph27.0 kmh 29.91 in1012.9 mb 0.00 in0.0 mm 0.00 in0.0 mm 0.00 in0.0 mm
06:55 AM 56.5°F13.6°C 46.8°F8.2°C 70% 6.7 mph W10.8 kmh W 16.8 mph27.0 kmh 29.91 in1012.9 mb 0.00 in0.0 mm 0.00 in0.0 mm 0.00 in0.0 mm
07:00 AM 56.5°F13.6°C 46.4°F8.0°C 69% 7.0 mph W11.3 kmh W 15.9 mph25.6 kmh 29.91 in1012.9 mb 0.00 in0.0 mm 0.00 in0.0 mm 0.00 in0.0 mm
07:05 AM 56.5°F13.6°C 46.1°F7.8°C 68% 6.8 mph W10.9 kmh W 15.9 mph25.6 kmh 29.91 in1012.9 mb 0.00 in0.0 mm 0.00 in0.0 mm 0.00 in0.0 mm
07:10 AM 56.7°F13.7°C 45.8°F7.7°C 67% 6.9 mph W11.1 kmh W 15.9 mph25.6 kmh 29.91 in1012.9 mb 0.00 in0.0 mm 0.00 in0.0 mm 0.00 in0.0 mm
07:15 AM 56.5°F13.6°C 45.7°F7.6°C 67% 6.4 mph W10.3 kmh W 15.9 mph25.6 kmh 29.91 in1012.9 mb 0.00 in0.0 mm 0.00 in0.0 mm 0.00 in0.0 mm
07:20 AM 56.7°F13.7°C 45.4°F7.4°C 66% 6.0 mph W9.7 kmh W 18.3 mph29.5 kmh 29.91 in1012.9 mb 0.00 in0.0 mm 0.00 in0.0 mm 0.00 in0.0 mm
07:25 AM 56.7°F13.7°C 45.4°F7.4°C 66% 6.8 mph W10.9 kmh W 20.6 mph33.2 kmh 29.91 in1012.9 mb 0.00 in0.0 mm 0.00 in0.0 mm 0.00 in0.0 mm
07:30 AM 56.7°F13.7°C 45.0°F7.2°C 65% 6.5 mph W10.5 kmh W 20.6 mph33.2 kmh 29.91 in1012.9 mb 0.00 in0.0 mm 0.00 in0.0 mm 0.00 in0.0 mm
07:35 AM 56.7°F13.7°C 45.0°F7.2°C 65% 6.2 mph WSW10.0 kmh WSW 15.2 mph24.5 kmh 29.91 in1012.9 mb 0.00 in0.0 mm 0.00 in0.0 mm 0.00 in0.0 mm
07:40 AM 56.7°F13.7°C 44.6°F7.0°C 64% 5.8 mph WSW9.3 kmh WSW 15.2 mph24.5 kmh 29.92 in1013.2 mb 0.00 in0.0 mm 0.00 in0.0 mm 0.00 in0.0 mm
07:45 AM 56.7°F13.7°C 44.6°F7.0°C 64% 4.9 mph WSW7.9 kmh WSW 13.6 mph21.9 kmh 29.92 in1013.2 mb 0.00 in0.0 mm 0.00 in0.0 mm 0.00 in0.0 mm
07:50 AM 56.5°F13.6°C 44.0°F6.7°C 63% 4.5 mph WSW7.2 kmh WSW 13.6 mph21.9 kmh 29.92 in1013.2 mb 0.00 in0.0 mm 0.00 in0.0 mm 0.00 in0.0 mm
07:55 AM 56.5°F13.6°C 43.6°F6.4°C 62% 4.2 mph WSW6.8 kmh WSW 13.6 mph21.9 kmh 29.92 in1013.2 mb 0.00 in0.0 mm 0.00 in0.0 mm 0.00 in0.0 mm
08:00 AM 56.5°F13.6°C 43.6°F6.4°C 62% 4.1 mph WSW6.6 kmh WSW 15.9 mph25.6 kmh 29.93 in1013.5 mb 0.00 in0.0 mm 0.00 in0.0 mm 0.00 in0.0 mm
08:05 AM 56.7°F13.7°C 43.8°F6.6°C 62% 3.6 mph W5.8 kmh W 15.9 mph25.6 kmh 29.93 in1013.5 mb 0.00 in0.0 mm 0.00 in0.0 mm 0.00 in0.0 mm
08:10 AM 56.8°F13.8°C 43.1°F6.2°C 60% 3.7 mph WSW6.0 kmh WSW 13.6 mph21.9 kmh 29.94 in1013.9 mb 0.00 in0.0 mm 0.00 in0.0 mm 0.00 in0.0 mm
08:15 AM 56.8°F13.8°C 43.1°F6.2°C 60% 2.9 mph WSW4.7 kmh WSW 13.6 mph21.9 kmh 29.94 in1013.9 mb 0.00 in0.0 mm 0.00 in0.0 mm 0.00 in0.0 mm
08:20 AM 57.0°F13.9°C 42.8°F6.0°C 59% 1.4 mph WSW2.3 kmh WSW 6.9 mph11.1 kmh 29.94 in1013.9 mb 0.00 in0.0 mm 0.00 in0.0 mm 0.00 in0.0 mm
08:25 AM 57.6°F14.2°C 42.9°F6.1°C 58% 1.4 mph WSW2.3 kmh WSW 6.0 mph9.7 kmh 29.94 in1013.9 mb 0.00 in0.0 mm 0.00 in0.0 mm 0.00 in0.0 mm
08:30 AM 57.9°F14.4°C 41.9°F5.5°C 55% 2.8 mph SW4.5 kmh SW 12.1 mph19.5 kmh 29.95 in1014.2 mb 0.00 in0.0 mm 0.00 in0.0 mm 0.00 in0.0 mm
08:35 AM 58.1°F14.5°C 41.1°F5.1°C 53% 4.7 mph WSW7.6 kmh WSW 12.1 mph19.5 kmh 29.95 in1014.2 mb 0.00 in0.0 mm 0.00 in0.0 mm 0.00 in0.0 mm
08:40 AM 58.1°F14.5°C 41.1°F5.1°C 53% 3.6 mph WSW5.8 kmh WSW 12.1 mph19.5 kmh 29.95 in1014.2 mb 0.00 in0.0 mm 0.00 in0.0 mm 0.00 in0.0 mm
08:45 AM 58.3°F14.6°C 39.2°F4.0°C 49% 3.5 mph SW5.6 kmh SW 13.6 mph21.9 kmh 29.95 in1014.2 mb 0.00 in0.0 mm 0.00 in0.0 mm 0.00 in0.0 mm
08:50 AM 58.6°F14.8°C 37.9°F3.3°C 46% 6.2 mph SSW10.0 kmh SSW 13.6 mph21.9 kmh 29.95 in1014.2 mb 0.00 in0.0 mm 0.00 in0.0 mm 0.00 in0.0 mm
08:55 AM 58.5°F14.7°C 37.8°F3.2°C 46% 7.7 mph SSW12.4 kmh SSW 13.6 mph21.9 kmh 29.96 in1014.6 mb 0.00 in0.0 mm 0.00 in0.0 mm 0.00 in0.0 mm
09:00 AM 58.6°F14.8°C 37.9°F3.3°C 46% 5.9 mph SW9.5 kmh SW 13.0 mph20.9 kmh 29.96 in1014.6 mb 0.00 in0.0 mm 0.00 in0.0 mm 0.00 in0.0 mm
09:05 AM 58.6°F14.8°C 37.9°F3.3°C 46% 3.6 mph SW5.8 kmh SW 13.0 mph20.9 kmh 29.97 in1014.9 mb 0.00 in0.0 mm 0.00 in0.0 mm 0.00 in0.0 mm
09:10 AM 58.6°F14.8°C 37.9°F3.3°C 46% 3.9 mph SW6.3 kmh SW 13.0 mph20.9 kmh 29.97 in1014.9 mb 0.00 in0.0 mm 0.00 in0.0 mm 0.00 in0.0 mm
09:15 AM 58.6°F14.8°C 37.4°F3.0°C 45% 6.4 mph SW10.3 kmh SW 18.3 mph29.5 kmh 29.97 in1014.9 mb 0.00 in0.0 mm 0.00 in0.0 mm 0.00 in0.0 mm
09:20 AM 58.6°F14.8°C 37.4°F3.0°C 45% 7.6 mph SW12.2 kmh SW 18.3 mph29.5 kmh 29.98 in1015.2 mb 0.00 in0.0 mm 0.00 in0.0 mm 0.00 in0.0 mm
09:25 AM 58.8°F14.9°C 37.5°F3.1°C 45% 6.7 mph SW10.8 kmh SW 15.9 mph25.6 kmh 29.99 in1015.6 mb 0.00 in0.0 mm 0.00 in0.0 mm 0.00 in0.0 mm
09:30 AM 59.0°F15.0°C 37.7°F3.2°C 45% 6.2 mph SW10.0 kmh SW 15.9 mph25.6 kmh 29.99 in1015.6 mb 0.00 in0.0 mm 0.00 in0.0 mm 0.00 in0.0 mm
09:35 AM 58.8°F14.9°C 37.0°F2.8°C 44% 6.3 mph SW10.1 kmh SW 15.9 mph25.6 kmh 29.99 in1015.6 mb 0.00 in0.0 mm 0.00 in0.0 mm 0.00 in0.0 mm
09:40 AM 58.8°F14.9°C 37.5°F3.1°C 45% 5.7 mph SW9.2 kmh SW 14.5 mph23.3 kmh 30.00 in1015.9 mb 0.00 in0.0 mm 0.00 in0.0 mm 0.00 in0.0 mm
09:45 AM 58.8°F14.9°C 37.0°F2.8°C 44% 5.4 mph W8.7 kmh W 13.6 mph21.9 kmh 30.00 in1015.9 mb 0.00 in0.0 mm 0.00 in0.0 mm 0.00 in0.0 mm
09:50 AM 58.8°F14.9°C 37.0°F2.8°C 44% 6.1 mph WNW9.8 kmh WNW 14.5 mph23.3 kmh 30.00 in1015.9 mb 0.00 in0.0 mm 0.00 in0.0 mm 0.00 in0.0 mm
09:55 AM 58.8°F14.9°C 37.5°F3.1°C 45% 6.1 mph W9.8 kmh W 15.2 mph24.5 kmh 30.00 in1015.9 mb 0.00 in0.0 mm 0.00 in0.0 mm 0.00 in0.0 mm
10:00 AM 59.0°F15.0°C 38.3°F3.5°C 46% 7.0 mph W11.3 kmh W 19.0 mph30.6 kmh 29.99 in1015.6 mb 0.00 in0.0 mm 0.00 in0.0 mm 0.00 in0.0 mm
10:05 AM 59.0°F15.0°C 38.3°F3.5°C 46% 7.8 mph W12.6 kmh W 19.0 mph30.6 kmh 29.99 in1015.6 mb 0.00 in0.0 mm 0.00 in0.0 mm 0.00 in0.0 mm
10:10 AM 58.8°F14.9°C 38.6°F3.7°C 47% 7.7 mph W12.4 kmh W 20.6 mph33.2 kmh 29.98 in1015.2 mb 0.00 in0.0 mm 0.00 in0.0 mm 0.00 in0.0 mm
10:15 AM 58.8°F14.9°C 39.2°F4.0°C 48% 8.7 mph W14.0 kmh W 22.8 mph36.7 kmh 29.99 in1015.6 mb 0.00 in0.0 mm 0.00 in0.0 mm 0.00 in0.0 mm
10:20 AM 59.0°F15.0°C 39.4°F4.1°C 48% 8.4 mph W13.5 kmh W 22.8 mph36.7 kmh 29.99 in1015.6 mb 0.00 in0.0 mm 0.00 in0.0 mm 0.00 in0.0 mm
10:25 AM 59.4°F15.2°C 39.7°F4.3°C 48% 6.7 mph WSW10.8 kmh WSW 19.0 mph30.6 kmh 30.00 in1015.9 mb 0.00 in0.0 mm 0.00 in0.0 mm 0.00 in0.0 mm
10:30 AM 59.7°F15.4°C 37.8°F3.2°C 44% 6.6 mph WNW10.6 kmh WNW 15.9 mph25.6 kmh 30.00 in1015.9 mb 0.00 in0.0 mm 0.00 in0.0 mm 0.00 in0.0 mm
10:35 AM 60.1°F15.6°C 36.9°F2.7°C 42% 6.7 mph W10.8 kmh W 16.8 mph27.0 kmh 30.00 in1015.9 mb 0.00 in0.0 mm 0.00 in0.0 mm 0.00 in0.0 mm
10:40 AM 60.3°F15.7°C 35.9°F2.2°C 40% 7.1 mph WSW11.4 kmh WSW 22.1 mph35.6 kmh 30.00 in1015.9 mb 0.00 in0.0 mm 0.00 in0.0 mm 0.00 in0.0 mm
10:45 AM 60.4°F15.8°C 36.6°F2.6°C 41% 7.1 mph W11.4 kmh W 22.1 mph35.6 kmh 30.01 in1016.3 mb 0.00 in0.0 mm 0.00 in0.0 mm 0.00 in0.0 mm
10:50 AM 60.6°F15.9°C 36.2°F2.3°C 40% 6.7 mph WNW10.8 kmh WNW 22.1 mph35.6 kmh 30.00 in1015.9 mb 0.00 in0.0 mm 0.00 in0.0 mm 0.00 in0.0 mm
10:55 AM 60.8°F16.0°C 36.3°F2.4°C 40% 7.5 mph WNW12.1 kmh WNW 18.3 mph29.5 kmh 30.00 in1015.9 mb 0.00 in0.0 mm 0.00 in0.0 mm 0.00 in0.0 mm
11:00 AM 60.8°F16.0°C 35.7°F2.1°C 39% 7.7 mph W12.4 kmh W 24.4 mph39.3 kmh 30.01 in1016.3 mb 0.00 in0.0 mm 0.00 in0.0 mm 0.00 in0.0 mm
11:05 AM 60.8°F16.0°C 35.7°F2.1°C 39% 7.4 mph W11.9 kmh W 24.4 mph39.3 kmh 30.01 in1016.3 mb 0.00 in0.0 mm 0.00 in0.0 mm 0.00 in0.0 mm
11:10 AM 60.8°F16.0°C 35.0°F1.7°C 38% 7.2 mph W11.6 kmh W 16.8 mph27.0 kmh 30.02 in1016.6 mb 0.00 in0.0 mm 0.00 in0.0 mm 0.00 in0.0 mm
11:15 AM 60.8°F16.0°C 35.0°F1.7°C 38% 6.6 mph W10.6 kmh W 16.8 mph27.0 kmh 30.02 in1016.6 mb 0.00 in0.0 mm 0.00 in0.0 mm 0.00 in0.0 mm
11:20 AM 60.8°F16.0°C 35.0°F1.7°C 38% 6.9 mph WNW11.1 kmh WNW 13.0 mph20.9 kmh 30.02 in1016.6 mb 0.00 in0.0 mm 0.00 in0.0 mm 0.00 in0.0 mm
11:25 AM 61.0°F16.1°C 34.5°F1.4°C 37% 7.3 mph W11.7 kmh W 14.5 mph23.3 kmh 30.02 in1016.6 mb 0.00 in0.0 mm 0.00 in0.0 mm 0.00 in0.0 mm
11:30 AM 61.0°F16.1°C 35.2°F1.8°C 38% 6.9 mph W11.1 kmh W 18.3 mph29.5 kmh 30.02 in1016.6 mb 0.00 in0.0 mm 0.00 in0.0 mm 0.00 in0.0 mm
11:35 AM 60.8°F16.0°C 35.7°F2.1°C 39% 6.6 mph WNW10.6 kmh WNW 18.3 mph29.5 kmh 30.01 in1016.3 mb 0.00 in0.0 mm 0.00 in0.0 mm 0.00 in0.0 mm
11:40 AM 61.0°F16.1°C 36.5°F2.5°C 40% 5.9 mph NW9.5 kmh NW 16.8 mph27.0 kmh 30.02 in1016.6 mb 0.00 in0.0 mm 0.00 in0.0 mm 0.00 in0.0 mm
11:45 AM 61.0°F16.1°C 35.9°F2.2°C 39% 6.0 mph NW9.7 kmh NW 16.8 mph27.0 kmh 30.02 in1016.6 mb 0.00 in0.0 mm 0.00 in0.0 mm 0.00 in0.0 mm
11:50 AM 61.2°F16.2°C 36.0°F2.2°C 39% 5.3 mph NW8.5 kmh NW 13.6 mph21.9 kmh 30.03 in1016.9 mb 0.00 in0.0 mm 0.00 in0.0 mm 0.00 in0.0 mm
11:55 AM 61.3°F16.3°C 36.2°F2.3°C 39% 4.6 mph WNW7.4 kmh WNW 13.0 mph20.9 kmh 30.02 in1016.6 mb 0.00 in0.0 mm 0.00 in0.0 mm 0.00 in0.0 mm
12:00 PM 61.3°F16.3°C 36.2°F2.3°C 39% 5.8 mph WNW9.3 kmh WNW 15.2 mph24.5 kmh 30.02 in1016.6 mb 0.00 in0.0 mm 0.00 in0.0 mm 0.00 in0.0 mm
12:05 PM 61.2°F16.2°C 35.4°F1.9°C 38% 6.3 mph WNW10.1 kmh WNW 15.2 mph24.5 kmh 30.02 in1016.6 mb 0.00 in0.0 mm 0.00 in0.0 mm 0.00 in0.0 mm
12:10 PM 61.2°F16.2°C 34.7°F1.5°C 37% 6.1 mph NW9.8 kmh NW 17.4 mph28.0 kmh 30.02 in1016.6 mb 0.00 in0.0 mm 0.00 in0.0 mm 0.00 in0.0 mm
12:15 PM 61.2°F16.2°C 35.4°F1.9°C 38% 6.3 mph NW10.1 kmh NW 17.4 mph28.0 kmh 30.02 in1016.6 mb 0.00 in0.0 mm 0.00 in0.0 mm 0.00 in0.0 mm
12:20 PM 61.3°F16.3°C 34.9°F1.6°C 37% 5.7 mph WNW9.2 kmh WNW 17.4 mph28.0 kmh 30.02 in1016.6 mb 0.00 in0.0 mm 0.00 in0.0 mm 0.00 in0.0 mm
12:25 PM 61.3°F16.3°C 33.5°F0.8°C 35% 5.7 mph WNW9.2 kmh WNW 13.0 mph20.9 kmh 30.02 in1016.6 mb 0.00 in0.0 mm 0.00 in0.0 mm 0.00 in0.0 mm
12:30 PM 61.3°F16.3°C 34.2°F1.2°C 36% 5.4 mph WNW8.7 kmh WNW 13.0 mph20.9 kmh 30.02 in1016.6 mb 0.00 in0.0 mm 0.00 in0.0 mm 0.00 in0.0 mm
12:35 PM 61.5°F16.4°C 34.3°F1.3°C 36% 3.7 mph WNW6.0 kmh WNW 10.7 mph17.2 kmh 30.02 in1016.6 mb 0.00 in0.0 mm 0.00 in0.0 mm 0.00 in0.0 mm
12:40 PM 61.5°F16.4°C 37.0°F2.8°C 40% 3.9 mph NW6.3 kmh NW 11.4 mph18.3 kmh 30.02 in1016.6 mb 0.00 in0.0 mm 0.00 in0.0 mm 0.00 in0.0 mm
12:45 PM 60.6°F15.9°C 36.2°F2.3°C 40% 6.4 mph NNW10.3 kmh NNW 14.5 mph23.3 kmh 30.02 in1016.6 mb 0.00 in0.0 mm 0.00 in0.0 mm 0.00 in0.0 mm
12:50 PM 60.3°F15.7°C 37.1°F2.8°C 42% 6.6 mph N10.6 kmh N 15.2 mph24.5 kmh 30.02 in1016.6 mb 0.00 in0.0 mm 0.00 in0.0 mm 0.00 in0.0 mm
12:55 PM 60.1°F15.6°C 38.1°F3.4°C 44% 5.8 mph NW9.3 kmh NW 15.2 mph24.5 kmh 30.02 in1016.6 mb 0.00 in0.0 mm 0.00 in0.0 mm 0.00 in0.0 mm
01:00 PM 59.9°F15.5°C 37.4°F3.0°C 43% 6.8 mph NNW10.9 kmh NNW 14.5 mph23.3 kmh 30.02 in1016.6 mb 0.00 in0.0 mm 0.00 in0.0 mm 0.00 in0.0 mm
01:05 PM 59.9°F15.5°C 37.4°F3.0°C 43% 7.0 mph NNW11.3 kmh NNW 14.5 mph23.3 kmh 30.02 in1016.6 mb 0.00 in0.0 mm 0.00 in0.0 mm 0.00 in0.0 mm
01:10 PM 59.7°F15.4°C 37.8°F3.2°C 44% 6.4 mph NW10.3 kmh NW 12.1 mph19.5 kmh 30.01 in1016.3 mb 0.00 in0.0 mm 0.00 in0.0 mm 0.00 in0.0 mm
01:15 PM 60.1°F15.6°C 37.5°F3.1°C 43% 5.8 mph NW9.3 kmh NW 12.1 mph19.5 kmh 30.02 in1016.6 mb 0.00 in0.0 mm 0.00 in0.0 mm 0.00 in0.0 mm
01:20 PM 59.7°F15.4°C 37.2°F2.9°C 43% 6.3 mph NW10.1 kmh NW 14.5 mph23.3 kmh 30.01 in1016.3 mb 0.00 in0.0 mm 0.00 in0.0 mm 0.00 in0.0 mm
01:25 PM 60.1°F15.6°C 36.9°F2.7°C 42% 5.0 mph NW8.0 kmh NW 14.5 mph23.3 kmh 30.02 in1016.6 mb 0.00 in0.0 mm 0.00 in0.0 mm 0.00 in0.0 mm
01:30 PM 60.8°F16.0°C 35.0°F1.7°C 38% 3.3 mph NW5.3 kmh NW 9.2 mph14.8 kmh 30.02 in1016.6 mb 0.00 in0.0 mm 0.00 in0.0 mm 0.00 in0.0 mm
01:35 PM 61.0°F16.1°C 35.9°F2.2°C 39% 3.9 mph NW6.3 kmh NW 9.2 mph14.8 kmh 30.02 in1016.6 mb 0.00 in0.0 mm 0.00 in0.0 mm 0.00 in0.0 mm
01:40 PM 60.8°F16.0°C 36.3°F2.4°C 40% 4.7 mph NW7.6 kmh NW 10.7 mph17.2 kmh 30.02 in1016.6 mb 0.00 in0.0 mm 0.00 in0.0 mm 0.00 in0.0 mm
01:45 PM 61.0°F16.1°C 35.9°F2.2°C 39% 3.9 mph NW6.3 kmh NW 10.7 mph17.2 kmh 30.02 in1016.6 mb 0.00 in0.0 mm 0.00 in0.0 mm 0.00 in0.0 mm
01:50 PM 61.2°F16.2°C 36.0°F2.2°C 39% 2.3 mph WNW3.7 kmh WNW 6.9 mph11.1 kmh 30.02 in1016.6 mb 0.00 in0.0 mm 0.00 in0.0 mm 0.00 in0.0 mm
01:55 PM 61.9°F16.6°C 30.9°F-0.6°C 31% 3.0 mph NW4.8 kmh NW 9.2 mph14.8 kmh 30.02 in1016.6 mb 0.00 in0.0 mm 0.00 in0.0 mm 0.00 in0.0 mm
02:00 PM 62.1°F16.7°C 30.3°F-0.9°C 30% 3.8 mph WNW6.1 kmh WNW 9.2 mph14.8 kmh 30.02 in1016.6 mb 0.00 in0.0 mm 0.00 in0.0 mm 0.00 in0.0 mm
02:05 PM 62.1°F16.7°C 29.5°F-1.4°C 29% 3.1 mph WNW5.0 kmh WNW 9.2 mph14.8 kmh 30.02 in1016.6 mb 0.00 in0.0 mm 0.00 in0.0 mm 0.00 in0.0 mm
02:10 PM 61.9°F16.6°C 30.9°F-0.6°C 31% 2.8 mph NW4.5 kmh NW 9.2 mph14.8 kmh 30.02 in1016.6 mb 0.00 in0.0 mm 0.00 in0.0 mm 0.00 in0.0 mm
02:15 PM 61.9°F16.6°C 33.2°F0.7°C 34% 4.0 mph WSW6.4 kmh WSW 12.1 mph19.5 kmh 30.02 in1016.6 mb 0.00 in0.0 mm 0.00 in0.0 mm 0.00 in0.0 mm
02:20 PM 61.9°F16.6°C 33.9°F1.1°C 35% 4.9 mph WSW7.9 kmh WSW 13.6 mph21.9 kmh 30.02 in1016.6 mb 0.00 in0.0 mm 0.00 in0.0 mm 0.00 in0.0 mm
02:25 PM 61.5°F16.4°C 33.6°F0.9°C 35% 5.0 mph WSW8.0 kmh WSW 13.6 mph21.9 kmh 30.02 in1016.6 mb 0.00 in0.0 mm 0.00 in0.0 mm 0.00 in0.0 mm
02:30 PM 61.5°F16.4°C 34.3°F1.3°C 36% 4.8 mph W7.7 kmh W 13.0 mph20.9 kmh 30.03 in1016.9 mb 0.00 in0.0 mm 0.00 in0.0 mm 0.00 in0.0 mm
02:35 PM 61.3°F16.3°C 34.2°F1.2°C 36% 4.2 mph WNW6.8 kmh WNW 11.4 mph18.3 kmh 30.03 in1016.9 mb 0.00 in0.0 mm 0.00 in0.0 mm 0.00 in0.0 mm
02:40 PM 61.3°F16.3°C 34.2°F1.2°C 36% 4.0 mph WNW6.4 kmh WNW 9.8 mph15.8 kmh 30.02 in1016.6 mb 0.00 in0.0 mm 0.00 in0.0 mm 0.00 in0.0 mm
02:45 PM 61.5°F16.4°C 34.3°F1.3°C 36% 4.6 mph W7.4 kmh W 13.6 mph21.9 kmh 30.03 in1016.9 mb 0.00 in0.0 mm 0.00 in0.0 mm 0.00 in0.0 mm
02:50 PM 61.2°F16.2°C 34.0°F1.1°C 36% 5.0 mph WSW8.0 kmh WSW 13.6 mph21.9 kmh 30.02 in1016.6 mb 0.00 in0.0 mm 0.00 in0.0 mm 0.00 in0.0 mm
02:55 PM 61.2°F16.2°C 34.0°F1.1°C 36% 4.6 mph WSW7.4 kmh WSW 11.4 mph18.3 kmh 30.03 in1016.9 mb 0.00 in0.0 mm 0.00 in0.0 mm 0.00 in0.0 mm
03:00 PM 61.2°F16.2°C 34.7°F1.5°C 37% 4.0 mph W6.4 kmh W 11.4 mph18.3 kmh 30.03 in1016.9 mb 0.00 in0.0 mm 0.00 in0.0 mm 0.00 in0.0 mm
03:05 PM 61.0°F16.1°C 34.5°F1.4°C 37% 3.7 mph WNW6.0 kmh WNW 9.8 mph15.8 kmh 30.03 in1016.9 mb 0.00 in0.0 mm 0.00 in0.0 mm 0.00 in0.0 mm
03:10 PM 61.0°F16.1°C 34.5°F1.4°C 37% 4.0 mph WNW6.4 kmh WNW 13.0 mph20.9 kmh 30.03 in1016.9 mb 0.00 in0.0 mm 0.00 in0.0 mm 0.00 in0.0 mm
03:15 PM 60.8°F16.0°C 35.0°F1.7°C 38% 4.4 mph W7.1 kmh W 13.0 mph20.9 kmh 30.03 in1016.9 mb 0.00 in0.0 mm 0.00 in0.0 mm 0.00 in0.0 mm
03:20 PM 60.6°F15.9°C 34.9°F1.6°C 38% 4.2 mph W6.8 kmh W 13.0 mph20.9 kmh 30.03 in1016.9 mb 0.00 in0.0 mm 0.00 in0.0 mm 0.00 in0.0 mm
03:25 PM 60.6°F15.9°C 35.5°F1.9°C 39% 3.9 mph W6.3 kmh W 13.6 mph21.9 kmh 30.03 in1016.9 mb 0.00 in0.0 mm 0.00 in0.0 mm 0.00 in0.0 mm
03:30 PM 60.4°F15.8°C 34.7°F1.5°C 38% 4.1 mph W6.6 kmh W 13.6 mph21.9 kmh 30.04 in1017.3 mb 0.00 in0.0 mm 0.00 in0.0 mm 0.00 in0.0 mm
03:35 PM 60.3°F15.7°C 35.2°F1.8°C 39% 4.1 mph W6.6 kmh W 10.7 mph17.2 kmh 30.04 in1017.3 mb 0.00 in0.0 mm 0.00 in0.0 mm 0.00 in0.0 mm
03:40 PM 60.1°F15.6°C 35.1°F1.7°C 39% 3.3 mph W5.3 kmh W 10.7 mph17.2 kmh 30.04 in1017.3 mb 0.00 in0.0 mm 0.00 in0.0 mm 0.00 in0.0 mm
03:45 PM 59.9°F15.5°C 34.9°F1.6°C 39% 3.6 mph W5.8 kmh W 11.4 mph18.3 kmh 30.04 in1017.3 mb 0.00 in0.0 mm 0.00 in0.0 mm 0.00 in0.0 mm
03:50 PM 59.7°F15.4°C 35.4°F1.9°C 40% 4.4 mph W7.1 kmh W 11.4 mph18.3 kmh 30.04 in1017.3 mb 0.00 in0.0 mm 0.00 in0.0 mm 0.00 in0.0 mm
03:55 PM 59.5°F15.3°C 34.6°F1.4°C 39% 4.3 mph W6.9 kmh W 10.7 mph17.2 kmh 30.04 in1017.3 mb 0.00 in0.0 mm 0.00 in0.0 mm 0.00 in0.0 mm
04:00 PM 59.4°F15.2°C 35.1°F1.7°C 40% 5.2 mph W8.4 kmh W 11.4 mph18.3 kmh 30.04 in1017.3 mb 0.00 in0.0 mm 0.00 in0.0 mm 0.00 in0.0 mm
04:05 PM 59.2°F15.1°C 34.9°F1.6°C 40% 5.4 mph W8.7 kmh W 11.4 mph18.3 kmh 30.04 in1017.3 mb 0.00 in0.0 mm 0.00 in0.0 mm 0.00 in0.0 mm
04:10 PM 59.0°F15.0°C 34.7°F1.5°C 40% 3.7 mph W6.0 kmh W 11.4 mph18.3 kmh 30.04 in1017.3 mb 0.00 in0.0 mm 0.00 in0.0 mm 0.00 in0.0 mm
04:15 PM 58.5°F14.7°C 35.5°F1.9°C 42% 1.8 mph W2.9 kmh W 7.6 mph12.2 kmh 30.05 in1017.6 mb 0.00 in0.0 mm 0.00 in0.0 mm 0.00 in0.0 mm
04:20 PM 58.3°F14.6°C 35.3°F1.8°C 42% 2.5 mph WSW4.0 kmh WSW 9.2 mph14.8 kmh 30.05 in1017.6 mb 0.00 in0.0 mm 0.00 in0.0 mm 0.00 in0.0 mm
04:25 PM 57.7°F14.3°C 35.4°F1.9°C 43% 3.9 mph WSW6.3 kmh WSW 9.8 mph15.8 kmh 30.05 in1017.6 mb 0.00 in0.0 mm 0.00 in0.0 mm 0.00 in0.0 mm
04:30 PM 57.6°F14.2°C 35.8°F2.1°C 44% 3.5 mph WSW5.6 kmh WSW 9.8 mph15.8 kmh 30.05 in1017.6 mb 0.00 in0.0 mm 0.00 in0.0 mm 0.00 in0.0 mm
04:35 PM 57.2°F14.0°C 35.5°F1.9°C 44% 2.6 mph WSW4.2 kmh WSW 8.3 mph13.4 kmh 30.05 in1017.6 mb 0.00 in0.0 mm 0.00 in0.0 mm 0.00 in0.0 mm
04:40 PM 57.0°F13.9°C 35.3°F1.8°C 44% 2.0 mph SW3.2 kmh SW 7.6 mph12.2 kmh 30.06 in1017.9 mb 0.00 in0.0 mm 0.00 in0.0 mm 0.00 in0.0 mm
04:45 PM 56.7°F13.7°C 35.0°F1.7°C 44% 1.9 mph WSW3.1 kmh WSW 5.4 mph8.7 kmh 30.06 in1017.9 mb 0.00 in0.0 mm 0.00 in0.0 mm 0.00 in0.0 mm
04:50 PM 56.5°F13.6°C 35.4°F1.9°C 45% 2.1 mph WSW3.4 kmh WSW 6.9 mph11.1 kmh 30.05 in1017.6 mb 0.00 in0.0 mm 0.00 in0.0 mm 0.00 in0.0 mm
04:55 PM 56.1°F13.4°C 35.1°F1.7°C 45% 2.4 mph WSW3.9 kmh WSW 6.9 mph11.1 kmh 30.06 in1017.9 mb 0.00 in0.0 mm 0.00 in0.0 mm 0.00 in0.0 mm
05:00 PM 55.9°F13.3°C 34.4°F1.3°C 44% 2.5 mph WSW4.0 kmh WSW 6.9 mph11.1 kmh 30.06 in1017.9 mb 0.00 in0.0 mm 0.00 in0.0 mm 0.00 in0.0 mm
05:05 PM 55.8°F13.2°C 34.8°F1.6°C 45% 2.1 mph WSW3.4 kmh WSW 6.9 mph11.1 kmh 30.06 in1017.9 mb 0.00 in0.0 mm 0.00 in0.0 mm 0.00 in0.0 mm
05:10 PM 55.4°F13.0°C 35.0°F1.7°C 46% 1.3 mph WSW2.1 kmh WSW 4.5 mph7.2 kmh 30.06 in1017.9 mb 0.00 in0.0 mm 0.00 in0.0 mm 0.00 in0.0 mm
05:15 PM 54.7°F12.6°C 34.9°F1.6°C 47% 0.7 mph SW1.1 kmh SW 3.8 mph6.1 kmh 30.07 in1018.3 mb 0.00 in0.0 mm 0.00 in0.0 mm 0.00 in0.0 mm
05:20 PM 54.3°F12.4°C 35.1°F1.7°C 48% 0.6 mph SW1.0 kmh SW 3.1 mph5.0 kmh 30.07 in1018.3 mb 0.00 in0.0 mm 0.00 in0.0 mm 0.00 in0.0 mm
05:25 PM 54.0°F12.2°C 34.7°F1.5°C 48% 0.7 mph WSW1.1 kmh WSW 3.1 mph5.0 kmh 30.07 in1018.3 mb 0.00 in0.0 mm 0.00 in0.0 mm 0.00 in0.0 mm
05:30 PM 53.6°F12.0°C 34.9°F1.6°C 49% 0.8 mph WSW1.3 kmh WSW 3.1 mph5.0 kmh 30.07 in1018.3 mb 0.00 in0.0 mm 0.00 in0.0 mm 0.00 in0.0 mm
05:35 PM 53.4°F11.9°C 35.3°F1.8°C 50% 0.8 mph SW1.3 kmh SW 3.8 mph6.1 kmh 30.07 in1018.3 mb 0.00 in0.0 mm 0.00 in0.0 mm 0.00 in0.0 mm
05:40 PM 52.9°F11.6°C 35.3°F1.8°C 51% 0.9 mph S1.4 kmh S 3.8 mph6.1 kmh 30.07 in1018.3 mb 0.00 in0.0 mm 0.00 in0.0 mm 0.00 in0.0 mm
05:45 PM 52.0°F11.1°C 35.9°F2.2°C 54% 1.6 mph SE2.6 kmh SE 3.8 mph6.1 kmh 30.07 in1018.3 mb 0.00 in0.0 mm 0.00 in0.0 mm 0.00 in0.0 mm
05:50 PM 51.3°F10.7°C 36.6°F2.6°C 57% 1.1 mph SE1.8 kmh SE 3.8 mph6.1 kmh 30.07 in1018.3 mb 0.00 in0.0 mm 0.00 in0.0 mm 0.00 in0.0 mm
05:55 PM 50.9°F10.5°C 36.7°F2.6°C 58% 0.5 mph S0.8 kmh S 3.1 mph5.0 kmh 30.07 in1018.3 mb 0.00 in0.0 mm 0.00 in0.0 mm 0.00 in0.0 mm
06:00 PM 50.9°F10.5°C 37.1°F2.8°C 59% 1.3 mph SW2.1 kmh SW 6.9 mph11.1 kmh 30.07 in1018.3 mb 0.00 in0.0 mm 0.00 in0.0 mm 0.00 in0.0 mm
06:05 PM 50.9°F10.5°C 37.1°F2.8°C 59% 1.7 mph WSW2.7 kmh WSW 6.9 mph11.1 kmh 30.07 in1018.3 mb 0.00 in0.0 mm 0.00 in0.0 mm 0.00 in0.0 mm
06:10 PM 50.5°F10.3°C 36.8°F2.7°C 59% 1.2 mph SW1.9 kmh SW 6.0 mph9.7 kmh 30.08 in1018.6 mb 0.00 in0.0 mm 0.00 in0.0 mm 0.00 in0.0 mm
06:15 PM 50.5°F10.3°C 36.8°F2.7°C 59% 0.4 mph SW0.6 kmh SW 4.5 mph7.2 kmh 30.08 in1018.6 mb 0.00 in0.0 mm 0.00 in0.0 mm 0.00 in0.0 mm
06:20 PM 50.4°F10.2°C 36.6°F2.6°C 59% 0.4 mph SW0.6 kmh SW 3.1 mph5.0 kmh 30.08 in1018.6 mb 0.00 in0.0 mm 0.00 in0.0 mm 0.00 in0.0 mm
06:25 PM 50.2°F10.1°C 36.8°F2.7°C 60% 0.6 mph SW1.0 kmh SW 3.1 mph5.0 kmh 30.08 in1018.6 mb 0.00 in0.0 mm 0.00 in0.0 mm 0.00 in0.0 mm
06:30 PM 50.2°F10.1°C 36.8°F2.7°C 60% 0.6 mph WSW1.0 kmh WSW 3.1 mph5.0 kmh 30.08 in1018.6 mb 0.00 in0.0 mm 0.00 in0.0 mm 0.00 in0.0 mm
06:35 PM 50.4°F10.2°C 37.0°F2.8°C 60% 0.3 mph SW0.5 kmh SW 3.1 mph5.0 kmh 30.08 in1018.6 mb 0.00 in0.0 mm 0.00 in0.0 mm 0.00 in0.0 mm
06:40 PM 50.5°F10.3°C 36.8°F2.7°C 59% 0.6 mph S1.0 kmh S 4.5 mph7.2 kmh 30.08 in1018.6 mb 0.00 in0.0 mm 0.00 in0.0 mm 0.00 in0.0 mm
06:45 PM 50.4°F10.2°C 36.6°F2.6°C 59% 0.8 mph S1.3 kmh S 4.5 mph7.2 kmh 30.08 in1018.6 mb 0.00 in0.0 mm 0.00 in0.0 mm 0.00 in0.0 mm
06:50 PM 50.2°F10.1°C 36.8°F2.7°C 60% 0.6 mph SSW1.0 kmh SSW 4.5 mph7.2 kmh 30.09 in1019.0 mb 0.00 in0.0 mm 0.00 in0.0 mm 0.00 in0.0 mm
06:55 PM 50.0°F10.0°C 36.7°F2.6°C 60% 0.6 mph SSW1.0 kmh SSW 3.1 mph5.0 kmh 30.09 in1019.0 mb 0.00 in0.0 mm 0.00 in0.0 mm 0.00 in0.0 mm
07:00 PM 50.0°F10.0°C 36.7°F2.6°C 60% 0.8 mph SSW1.3 kmh SSW 3.1 mph5.0 kmh 30.09 in1019.0 mb 0.00 in0.0 mm 0.00 in0.0 mm 0.00 in0.0 mm
07:05 PM 50.0°F10.0°C 37.1°F2.8°C 61% 0.9 mph SW1.4 kmh SW 3.1 mph5.0 kmh 30.09 in1019.0 mb 0.00 in0.0 mm 0.00 in0.0 mm 0.00 in0.0 mm
07:10 PM 49.8°F9.9°C 36.9°F2.7°C 61% 0.4 mph WSW0.6 kmh WSW 3.1 mph5.0 kmh 30.09 in1019.0 mb 0.00 in0.0 mm 0.00 in0.0 mm 0.00 in0.0 mm
07:15 PM 49.8°F9.9°C 36.9°F2.7°C 61% 0.5 mph S0.8 kmh S 3.1 mph5.0 kmh 30.10 in1019.3 mb 0.00 in0.0 mm 0.00 in0.0 mm 0.00 in0.0 mm
07:20 PM 49.6°F9.8°C 36.8°F2.7°C 61% 0.8 mph SE1.3 kmh SE 3.1 mph5.0 kmh 30.09 in1019.0 mb 0.00 in0.0 mm 0.00 in0.0 mm 0.00 in0.0 mm
07:25 PM 49.3°F9.6°C 36.8°F2.7°C 62% 0.6 mph SE1.0 kmh SE 3.1 mph5.0 kmh 30.09 in1019.0 mb 0.00 in0.0 mm 0.00 in0.0 mm 0.00 in0.0 mm
07:30 PM 48.6°F9.2°C 36.9°F2.7°C 64% 0.6 mph WSW1.0 kmh WSW 2.2 mph3.5 kmh 30.09 in1019.0 mb 0.00 in0.0 mm 0.00 in0.0 mm 0.00 in0.0 mm
07:35 PM 48.6°F9.2°C 36.5°F2.5°C 63% 1.1 mph SSW1.8 kmh SSW 3.8 mph6.1 kmh 30.10 in1019.3 mb 0.00 in0.0 mm 0.00 in0.0 mm 0.00 in0.0 mm
07:40 PM 48.4°F9.1°C 36.4°F2.4°C 63% 1.8 mph SE2.9 kmh SE 4.5 mph7.2 kmh 30.10 in1019.3 mb 0.00 in0.0 mm 0.00 in0.0 mm 0.00 in0.0 mm
07:45 PM 48.0°F8.9°C 36.4°F2.4°C 64% 1.3 mph SSE2.1 kmh SSE 4.5 mph7.2 kmh 30.10 in1019.3 mb 0.00 in0.0 mm 0.00 in0.0 mm 0.00 in0.0 mm
07:50 PM 48.0°F8.9°C 36.4°F2.4°C 64% 0.4 mph S0.6 kmh S 2.2 mph3.5 kmh 30.10 in1019.3 mb 0.00 in0.0 mm 0.00 in0.0 mm 0.00 in0.0 mm
07:55 PM 48.0°F8.9°C 36.4°F2.4°C 64% 0.6 mph SW1.0 kmh SW 3.1 mph5.0 kmh 30.11 in1019.6 mb 0.00 in0.0 mm 0.00 in0.0 mm 0.00 in0.0 mm
08:00 PM 48.2°F9.0°C 36.6°F2.6°C 64% 0.8 mph SSW1.3 kmh SSW 3.1 mph5.0 kmh 30.11 in1019.6 mb 0.00 in0.0 mm 0.00 in0.0 mm 0.00 in0.0 mm
08:05 PM 47.7°F8.7°C 36.5°F2.5°C 65% 1.1 mph SE1.8 kmh SE 3.8 mph6.1 kmh 30.10 in1019.3 mb 0.00 in0.0 mm 0.00 in0.0 mm 0.00 in0.0 mm
08:10 PM 47.7°F8.7°C 36.5°F2.5°C 65% 1.0 mph SE1.6 kmh SE 3.8 mph6.1 kmh 30.11 in1019.6 mb 0.00 in0.0 mm 0.00 in0.0 mm 0.00 in0.0 mm
08:15 PM 48.2°F9.0°C 36.6°F2.6°C 64% 0.7 mph SE1.1 kmh SE 2.2 mph3.5 kmh 30.11 in1019.6 mb 0.00 in0.0 mm 0.00 in0.0 mm 0.00 in0.0 mm
08:20 PM 48.6°F9.2°C 36.5°F2.5°C 63% 1.0 mph SW1.6 kmh SW 3.8 mph6.1 kmh 30.11 in1019.6 mb 0.00 in0.0 mm 0.00 in0.0 mm 0.00 in0.0 mm
08:25 PM 48.9°F9.4°C 36.9°F2.7°C 63% 1.4 mph W2.3 kmh W 5.4 mph8.7 kmh 30.11 in1019.6 mb 0.00 in0.0 mm 0.00 in0.0 mm 0.00 in0.0 mm
08:30 PM 49.3°F9.6°C 36.8°F2.7°C 62% 1.1 mph WSW1.8 kmh WSW 5.4 mph8.7 kmh 30.12 in1020.0 mb 0.00 in0.0 mm 0.00 in0.0 mm 0.00 in0.0 mm
08:35 PM 49.3°F9.6°C 36.4°F2.4°C 61% 1.0 mph S1.6 kmh S 3.1 mph5.0 kmh 30.12 in1020.0 mb 0.00 in0.0 mm 0.00 in0.0 mm 0.00 in0.0 mm
08:40 PM 49.5°F9.7°C 36.6°F2.6°C 61% 1.0 mph S1.6 kmh S 3.1 mph5.0 kmh 30.12 in1020.0 mb 0.00 in0.0 mm 0.00 in0.0 mm 0.00 in0.0 mm
08:45 PM 49.5°F9.7°C 36.6°F2.6°C 61% 0.6 mph SSW1.0 kmh SSW 3.1 mph5.0 kmh 30.13 in1020.3 mb 0.00 in0.0 mm 0.00 in0.0 mm 0.00 in0.0 mm
08:50 PM 48.4°F9.1°C 36.0°F2.2°C 62% 0.5 mph ESE0.8 kmh ESE 3.1 mph5.0 kmh 30.13 in1020.3 mb 0.00 in0.0 mm 0.00 in0.0 mm 0.00 in0.0 mm
08:55 PM 47.3°F8.5°C 36.1°F2.3°C 65% 0.5 mph NE0.8 kmh NE 2.2 mph3.5 kmh 30.14 in1020.7 mb 0.00 in0.0 mm 0.00 in0.0 mm 0.00 in0.0 mm
09:00 PM 47.3°F8.5°C 36.5°F2.5°C 66% 0.5 mph W0.8 kmh W 2.2 mph3.5 kmh 30.14 in1020.7 mb 0.00 in0.0 mm 0.00 in0.0 mm 0.00 in0.0 mm
09:05 PM 47.5°F8.6°C 36.3°F2.4°C 65% 1.0 mph SW1.6 kmh SW 2.2 mph3.5 kmh 30.14 in1020.7 mb 0.00 in0.0 mm 0.00 in0.0 mm 0.00 in0.0 mm
09:10 PM 47.7°F8.7°C 36.5°F2.5°C 65% 0.8 mph S1.3 kmh S 2.2 mph3.5 kmh 30.14 in1020.7 mb 0.00 in0.0 mm 0.00 in0.0 mm 0.00 in0.0 mm
09:15 PM 47.7°F8.7°C 36.5°F2.5°C 65% 0.8 mph SSW1.3 kmh SSW 3.1 mph5.0 kmh 30.14 in1020.7 mb 0.00 in0.0 mm 0.00 in0.0 mm 0.00 in0.0 mm
09:20 PM 47.3°F8.5°C 36.1°F2.3°C 65% 1.6 mph SW2.6 kmh SW 3.8 mph6.1 kmh 30.14 in1020.7 mb 0.00 in0.0 mm 0.00 in0.0 mm 0.00 in0.0 mm
09:25 PM 46.8°F8.2°C 35.6°F2.0°C 65% 1.9 mph SW3.1 kmh SW 3.8 mph6.1 kmh 30.14 in1020.7 mb 0.00 in0.0 mm 0.00 in0.0 mm 0.00 in0.0 mm
09:30 PM 46.2°F7.9°C 35.5°F1.9°C 66% 1.2 mph SW1.9 kmh SW 3.8 mph6.1 kmh 30.14 in1020.7 mb 0.00 in0.0 mm 0.00 in0.0 mm 0.00 in0.0 mm
09:35 PM 46.0°F7.8°C 35.3°F1.8°C 66% 0.5 mph SW0.8 kmh SW 3.1 mph5.0 kmh 30.14 in1020.7 mb 0.00 in0.0 mm 0.00 in0.0 mm 0.00 in0.0 mm
09:40 PM 45.7°F7.6°C 35.0°F1.7°C 66% 1.6 mph SW2.6 kmh SW 6.9 mph11.1 kmh 30.14 in1020.7 mb 0.00 in0.0 mm 0.00 in0.0 mm 0.00 in0.0 mm
09:45 PM 45.0°F7.2°C 34.3°F1.3°C 66% 2.9 mph SW4.7 kmh SW 6.9 mph11.1 kmh 30.14 in1020.7 mb 0.00 in0.0 mm 0.00 in0.0 mm 0.00 in0.0 mm
09:50 PM 44.6°F7.0°C 34.3°F1.3°C 67% 2.6 mph SW4.2 kmh SW 6.9 mph11.1 kmh 30.14 in1020.7 mb 0.00 in0.0 mm 0.00 in0.0 mm 0.00 in0.0 mm
09:55 PM 44.2°F6.8°C 34.4°F1.3°C 68% 2.0 mph SW3.2 kmh SW 3.8 mph6.1 kmh 30.14 in1020.7 mb 0.00 in0.0 mm 0.00 in0.0 mm 0.00 in0.0 mm
10:00 PM 44.2°F6.8°C 34.7°F1.5°C 69% 1.6 mph SW2.6 kmh SW 3.8 mph6.1 kmh 30.14 in1020.7 mb 0.00 in0.0 mm 0.00 in0.0 mm 0.00 in0.0 mm
10:05 PM 44.1°F6.7°C 34.6°F1.4°C 69% 1.5 mph SW2.4 kmh SW 3.8 mph6.1 kmh 30.14 in1020.7 mb 0.00 in0.0 mm 0.00 in0.0 mm 0.00 in0.0 mm
10:10 PM 43.9°F6.6°C 34.7°F1.5°C 70% 1.3 mph SW2.1 kmh SW 3.8 mph6.1 kmh 30.14 in1020.7 mb 0.00 in0.0 mm 0.00 in0.0 mm 0.00 in0.0 mm
10:15 PM 43.5°F6.4°C 34.8°F1.6°C 71% 1.1 mph S1.8 kmh S 3.8 mph6.1 kmh 30.14 in1020.7 mb 0.00 in0.0 mm 0.00 in0.0 mm 0.00 in0.0 mm
10:20 PM 43.2°F6.2°C 34.8°F1.6°C 72% 1.2 mph S1.9 kmh S 4.5 mph7.2 kmh 30.14 in1020.7 mb 0.00 in0.0 mm 0.00 in0.0 mm 0.00 in0.0 mm
10:25 PM 43.2°F6.2°C 35.1°F1.7°C 73% 1.7 mph WSW2.7 kmh WSW 4.5 mph7.2 kmh 30.14 in1020.7 mb 0.00 in0.0 mm 0.00 in0.0 mm 0.00 in0.0 mm
10:30 PM 43.0°F6.1°C 34.9°F1.6°C 73% 2.2 mph WSW3.5 kmh WSW 4.5 mph7.2 kmh 30.14 in1020.7 mb 0.00 in0.0 mm 0.00 in0.0 mm 0.00 in0.0 mm
10:35 PM 43.2°F6.2°C 35.1°F1.7°C 73% 1.7 mph SW2.7 kmh SW 3.8 mph6.1 kmh 30.14 in1020.7 mb 0.00 in0.0 mm 0.00 in0.0 mm 0.00 in0.0 mm
10:40 PM 43.0°F6.1°C 34.9°F1.6°C 73% 0.8 mph SW1.3 kmh SW 3.1 mph5.0 kmh 30.14 in1020.7 mb 0.00 in0.0 mm 0.00 in0.0 mm 0.00 in0.0 mm
10:45 PM 43.2°F6.2°C 35.1°F1.7°C 73% 0.2 mph WSW0.3 kmh WSW 2.2 mph3.5 kmh 30.14 in1020.7 mb 0.00 in0.0 mm 0.00 in0.0 mm 0.00 in0.0 mm
10:50 PM 43.2°F6.2°C 35.1°F1.7°C 73% Calm Calm 1.6 mph2.6 kmh 30.14 in1020.7 mb 0.00 in0.0 mm 0.00 in0.0 mm 0.00 in0.0 mm
10:55 PM 42.6°F5.9°C 34.6°F1.4°C 73% 0.2 mph WNW0.3 kmh WNW 1.6 mph2.6 kmh 30.15 in1021.0 mb 0.00 in0.0 mm 0.00 in0.0 mm 0.00 in0.0 mm
11:00 PM 42.4°F5.8°C 35.1°F1.7°C 75% 0.8 mph NW1.3 kmh NW 3.8 mph6.1 kmh 30.14 in1020.7 mb 0.00 in0.0 mm 0.00 in0.0 mm 0.00 in0.0 mm
11:05 PM 43.2°F6.2°C 35.8°F2.1°C 75% 1.0 mph W1.6 kmh W 3.8 mph6.1 kmh 30.15 in1021.0 mb 0.00 in0.0 mm 0.00 in0.0 mm 0.00 in0.0 mm
11:10 PM 43.3°F6.3°C 36.0°F2.2°C 75% 0.7 mph WSW1.1 kmh WSW 3.8 mph6.1 kmh 30.15 in1021.0 mb 0.00 in0.0 mm 0.00 in0.0 mm 0.00 in0.0 mm
11:15 PM 45.1°F7.3°C 36.3°F2.4°C 71% 1.3 mph WSW2.1 kmh WSW 5.4 mph8.7 kmh 30.15 in1021.0 mb 0.00 in0.0 mm 0.00 in0.0 mm 0.00 in0.0 mm
11:20 PM 45.3°F7.4°C 36.1°F2.3°C 70% 1.0 mph WSW1.6 kmh WSW 5.4 mph8.7 kmh 30.15 in1021.0 mb 0.00 in0.0 mm 0.00 in0.0 mm 0.00 in0.0 mm
11:25 PM 45.1°F7.3°C 35.9°F2.2°C 70% 0.1 mph SW0.2 kmh SW 3.1 mph5.0 kmh 30.15 in1021.0 mb 0.00 in0.0 mm 0.00 in0.0 mm 0.00 in0.0 mm
11:30 PM 45.0°F7.2°C 35.8°F2.1°C 70% 0.1 mph WSW0.2 kmh WSW 1.6 mph2.6 kmh 30.16 in1021.3 mb 0.00 in0.0 mm 0.00 in0.0 mm 0.00 in0.0 mm
11:35 PM 44.6°F7.0°C 35.8°F2.1°C 71% 0.1 mph W0.2 kmh W 1.6 mph2.6 kmh 30.15 in1021.0 mb 0.00 in0.0 mm 0.00 in0.0 mm 0.00 in0.0 mm
11:40 PM 44.2°F6.8°C 35.4°F1.9°C 71% 0.6 mph W1.0 kmh W 3.8 mph6.1 kmh 30.15 in1021.0 mb 0.00 in0.0 mm 0.00 in0.0 mm 0.00 in0.0 mm
11:45 PM 44.1°F6.7°C 35.6°F2.0°C 72% 0.7 mph WSW1.1 kmh WSW 3.8 mph6.1 kmh 30.16 in1021.3 mb 0.00 in0.0 mm 0.00 in0.0 mm 0.00 in0.0 mm
11:50 PM 44.1°F6.7°C 35.3°F1.8°C 71% 0.2 mph SW0.3 kmh SW 2.2 mph3.5 kmh 30.16 in1021.3 mb 0.00 in0.0 mm 0.00 in0.0 mm 0.00 in0.0 mm
11:55 PM 44.2°F6.8°C 35.4°F1.9°C 71% 0.5 mph WSW0.8 kmh WSW 3.1 mph5.0 kmh 30.15 in1021.0 mb 0.00 in0.0 mm 0.00 in0.0 mm 0.00 in0.0 mm